Main page
Satellite images 15-day forecastsClimateMarine weather Cyclones Lightning AirportsFAQ Newsletter About
Weather : Europe Africa North America South America Asia Australia-Oceania Others
Languages Contact

Longyearbyen, Norway

Svalbard

latitude: 78-15N, longitude: 015-28E, elevation: 2 m


METAR: ENSB 201750Z 29004KT CAVOK 07/02 Q1013 RMK WIND 1400FT 25004KT
short-TAF: out of date (50744 hours)
long-TAF: ENSB 201700Z 2018/2118 30005KT 9999 FEW020

Time: 20:29 (18:29 UTC)

Current weather observation

The report was made 39 minutes ago, at 17:50 UTC  
Wind 04 kt from the West/Northwest
Temperature 7°C
Humidity 70%
Pressure 1013 hPa
Visibility 10 km or more
no clouds below 1500 m and no cumulonimbus

Change units

Forecast

The report was made 32 minutes ago, at 17:57 UTC  
Forecast valid from 20 at 18 UTC to 21 at 18 UTC
Wind 05 kt from the West/Northwest
Visibility 10 km or more
Few clouds at a height of 2000 ft
The information on this site is subject to a disclaimer
Weather : Europe Africa North America South America Asia Australia-Oceania Others
Satellite images 15-day forecastsClimateMarine weather Cyclones Lightning AirportsFAQ Languages Contact Newsletter About